Главная страница
METAR-TAF:

METAR-TAF

Аэропорты :

Бурленге, Швеция

широта: 60-26N, долгота: 015-31E, высота над уровнем моря: 145 м

Текущие метеонаблюдения

Эта сводка был подготовлена 43 минут назад, в 19:50 UTC
Ветер 4 Узел от западный-юго-западный
Температура 8°C
Влажность 57%
Давление 1036 hPa
Видимость 10 км и более

METAR: ESSD 181950Z AUTO 25004KT 9999 NCD 08/M00 Q1036

Время: 22:33 (20:33 UTC)

Прогноз

Эта сводка был подготовлена 9 часа и 3 минут назад, в 11:30 UTC
Прогноз действительный с 18-го 12 UTC до 18-го 15 UTC
Ветер 2 Узел переменных направлений
Видимость 10 км и более
Нет облачности ниже 1500 м, и нет кучево-дождевой облачности

TAF: ESSD 181130Z 1812/1815 VRB02KT CAVOK

Метеонаблюдения и прогнозы для более 4000 аэропортов (сводки METAR и TAF).

Имеющиеся станции представлены на карте желтыми и красными точками.

Чтобы увидеть название станции, наведите на нее мышь.

Затем щелкните, чтобы увидеть метеонаблюдения и метеопрогнозы.

Управление картой: чтобы увеличить масштаб, щелкните зеленые кнопки с черным крестиком; чтобы уменьшить масштаб, щелкните зеленую кнопку с тире; для просмотра соседних карт щелкайте зеленые стрелки.


METAR-TAF: